createdAt,value
2022-10-26T00:01:12.812Z,4.57
2022-10-26T00:03:41.515Z,3.47
2022-10-26T00:06:12.393Z,5.13
2022-10-26T00:08:39.364Z,11.38
2022-10-26T00:11:07.194Z,6.20
2022-10-26T00:13:34.847Z,6.13
2022-10-26T00:16:02.361Z,15.82
2022-10-26T00:18:29.372Z,5.72
2022-10-26T00:21:02.380Z,9.73
2022-10-26T00:23:29.489Z,10.90
2022-10-26T00:25:57.367Z,16.38
2022-10-26T00:28:24.804Z,8.88
2022-10-26T00:30:52.124Z,6.28
2022-10-26T00:33:19.325Z,10.43
2022-10-26T00:35:54.152Z,5.68
2022-10-26T00:38:21.286Z,4.32
2022-10-26T00:40:48.844Z,4.05
2022-10-26T00:43:37.086Z,5.78
2022-10-26T00:46:08.269Z,2.55
2022-10-26T00:48:49.651Z,4.22
2022-10-26T00:51:25.090Z,5.68
2022-10-26T00:53:53.502Z,15.07
2022-10-26T00:56:20.943Z,5.55
2022-10-26T00:58:48.467Z,3.67
2022-10-26T01:01:15.796Z,7.00
2022-10-26T01:03:43.923Z,6.20
2022-10-26T01:06:12.612Z,5.25
2022-10-26T01:08:40.327Z,3.40
2022-10-26T01:11:07.339Z,6.57
2022-10-26T01:13:39.023Z,4.72
2022-10-26T01:16:16.272Z,7.35
2022-10-26T01:19:12.610Z,7.95
2022-10-26T01:22:07.456Z,7.10
2022-10-26T01:24:52.780Z,4.03
2022-10-26T01:27:30.033Z,7.13
2022-10-26T01:30:44.017Z,8.02
2022-10-26T01:33:25.253Z,6.03
2022-10-26T01:36:00.890Z,4.15
2022-10-26T01:38:50.074Z,11.52
2022-10-26T01:41:33.070Z,10.27
2022-10-26T01:44:04.683Z,8.73
2022-10-26T01:46:36.597Z,6.13
2022-10-26T01:49:08.206Z,7.40
2022-10-26T01:51:35.918Z,3.78
2022-10-26T01:54:02.838Z,5.10
2022-10-26T01:56:34.159Z,5.70
2022-10-26T01:59:30.555Z,6.07
2022-10-26T02:02:34.783Z,5.03
2022-10-26T02:05:13.743Z,5.43
2022-10-26T02:07:57.645Z,6.32
2022-10-26T02:10:51.252Z,4.07
2022-10-26T02:14:08.510Z,5.95
2022-10-26T02:17:02.858Z,4.75
2022-10-26T02:19:51.213Z,9.20
2022-10-26T02:22:38.263Z,4.63
2022-10-26T02:25:09.703Z,3.75
2022-10-26T02:27:42.559Z,6.22
2022-10-26T02:30:10.944Z,6.75
2022-10-26T02:32:42.951Z,8.07
2022-10-26T02:35:12.004Z,7.53
2022-10-26T02:37:40.118Z,6.35
2022-10-26T02:40:12.179Z,5.72
2022-10-26T02:42:42.730Z,5.80
2022-10-26T02:45:14.167Z,9.15
2022-10-26T02:47:41.199Z,8.88
2022-10-26T02:50:08.538Z,14.05
2022-10-26T02:52:50.726Z,4.20
2022-10-26T02:55:23.633Z,7.00
2022-10-26T02:57:55.931Z,5.28
2022-10-26T03:00:23.025Z,7.22
2022-10-26T03:02:57.402Z,10.40
2022-10-26T03:05:29.403Z,5.15
2022-10-26T03:07:56.907Z,4.72
2022-10-26T03:10:24.358Z,6.50
2022-10-26T03:12:52.389Z,4.15
2022-10-26T03:15:19.483Z,9.20
2022-10-26T03:17:46.852Z,8.68
2022-10-26T03:20:14.029Z,13.98
2022-10-26T03:22:40.990Z,12.02
2022-10-26T03:27:35.659Z,7.97
2022-10-26T03:30:02.666Z,6.07
2022-10-26T03:32:29.563Z,4.93
2022-10-26T03:34:56.527Z,5.40
2022-10-26T03:37:23.907Z,6.38
2022-10-26T03:39:50.801Z,6.93
2022-10-26T03:42:17.727Z,8.48
2022-10-26T03:44:44.796Z,5.35
2022-10-26T03:47:11.718Z,4.68
2022-10-26T03:49:38.613Z,6.63
2022-10-26T03:52:05.524Z,6.53
2022-10-26T03:54:32.502Z,5.03
2022-10-26T03:56:59.434Z,10.80
2022-10-26T03:59:26.397Z,7.63
2022-10-26T04:01:56.746Z,5.30
2022-10-26T04:04:25.210Z,9.50
2022-10-26T04:06:52.990Z,7.80
2022-10-26T04:09:19.905Z,5.93
2022-10-26T04:11:46.875Z,6.90
2022-10-26T04:14:13.773Z,13.35
2022-10-26T04:16:40.743Z,9.35
2022-10-26T04:19:07.797Z,7.65
2022-10-26T04:21:35.548Z,8.65
2022-10-26T04:24:02.876Z,13.82
2022-10-26T04:26:29.861Z,9.27
2022-10-26T04:28:57.087Z,12.20
2022-10-26T04:31:24.024Z,9.98
2022-10-26T04:33:50.999Z,8.45
2022-10-26T04:36:17.934Z,5.10
2022-10-26T04:38:44.891Z,9.15
2022-10-26T04:41:11.847Z,8.18
2022-10-26T04:43:38.833Z,10.60
2022-10-26T04:46:05.935Z,11.88
2022-10-26T04:48:32.917Z,7.75
2022-10-26T04:51:00.589Z,8.82
2022-10-26T04:53:28.365Z,9.63
2022-10-26T04:55:59.988Z,11.38
2022-10-26T04:58:27.919Z,8.23
2022-10-26T05:00:55.514Z,11.57
2022-10-26T05:03:22.734Z,9.00
2022-10-26T05:05:49.782Z,11.23
2022-10-26T05:08:16.787Z,12.82
2022-10-26T05:10:47.901Z,9.80
2022-10-26T05:13:14.897Z,9.93
2022-10-26T05:15:41.913Z,9.95
2022-10-26T05:18:09.581Z,11.57
2022-10-26T05:20:37.564Z,13.70
2022-10-26T05:23:06.981Z,8.60
2022-10-26T05:25:37.069Z,9.77
2022-10-26T05:28:08.109Z,17.88
2022-10-26T05:30:35.144Z,13.95
2022-10-26T05:33:03.450Z,12.13
2022-10-26T05:35:31.465Z,7.80
2022-10-26T05:37:58.803Z,6.68
2022-10-26T05:40:26.680Z,7.35
2022-10-26T05:43:01.072Z,11.05
2022-10-26T05:45:28.560Z,10.68
2022-10-26T05:47:58.596Z,14.10
2022-10-26T05:50:28.688Z,16.20
2022-10-26T05:52:55.951Z,12.75
2022-10-26T05:55:23.614Z,7.43
2022-10-26T05:57:51.126Z,6.50
2022-10-26T06:00:21.795Z,11.02
2022-10-26T06:03:13.320Z,13.73
2022-10-26T06:06:02.562Z,11.93
2022-10-26T06:08:32.491Z,11.93
2022-10-26T06:10:59.822Z,12.38
2022-10-26T06:13:27.400Z,14.85
2022-10-26T06:16:14.731Z,14.25
2022-10-26T06:19:08.053Z,9.93
2022-10-26T06:21:50.635Z,14.10
2022-10-26T06:24:54.251Z,9.35
2022-10-26T06:27:46.407Z,12.25
2022-10-26T06:30:13.722Z,11.07
2022-10-26T06:32:45.011Z,11.68
2022-10-26T06:35:45.557Z,9.57
2022-10-26T06:38:17.095Z,15.32
2022-10-26T06:40:46.825Z,12.95
2022-10-26T06:43:26.029Z,7.47
2022-10-26T06:46:05.270Z,10.73
2022-10-26T06:48:44.971Z,15.73
2022-10-26T06:51:15.690Z,11.15
2022-10-26T06:54:08.755Z,8.75
2022-10-26T06:56:36.681Z,16.13
2022-10-26T06:59:40.867Z,17.92
2022-10-26T07:02:10.204Z,13.82
2022-10-26T07:04:37.233Z,17.13
2022-10-26T07:07:04.340Z,23.95
2022-10-26T07:09:31.276Z,21.42
2022-10-26T07:11:58.181Z,26.67
2022-10-26T07:14:25.122Z,35.45
2022-10-26T07:16:52.208Z,11.05
2022-10-26T07:19:19.157Z,9.60
2022-10-26T07:21:46.159Z,7.22
2022-10-26T07:24:13.045Z,20.90
2022-10-26T07:26:40.049Z,11.40
2022-10-26T07:29:07.095Z,19.83
2022-10-26T07:31:34.046Z,12.10
2022-10-26T07:34:01.066Z,16.35
2022-10-26T07:36:31.093Z,18.75
2022-10-26T07:38:58.026Z,15.63
2022-10-26T07:41:24.979Z,18.05
2022-10-26T07:43:51.983Z,9.90
2022-10-26T07:46:19.420Z,9.88
2022-10-26T07:48:46.400Z,9.13
2022-10-26T07:51:13.649Z,10.98
2022-10-26T07:53:40.763Z,14.93
2022-10-26T07:56:08.206Z,19.58
2022-10-26T07:58:35.290Z,15.80
2022-10-26T08:01:11.493Z,12.07
2022-10-26T08:06:07.708Z,27.85
2022-10-26T08:08:34.641Z,23.63
2022-10-26T08:11:02.260Z,45.15
2022-10-26T08:13:29.473Z,35.97
2022-10-26T08:16:01.231Z,45.13
2022-10-26T08:18:28.582Z,31.25
2022-10-26T08:21:01.811Z,21.60
2022-10-26T08:23:37.322Z,22.05
2022-10-26T08:26:05.187Z,36.95
2022-10-26T08:28:32.127Z,18.90
2022-10-26T08:30:59.238Z,31.83
2022-10-26T08:33:26.754Z,24.77
2022-10-26T08:35:58.198Z,27.48
2022-10-26T08:38:25.598Z,36.28
2022-10-26T08:40:53.619Z,35.15
2022-10-26T08:43:55.892Z,31.23
2022-10-26T08:46:32.667Z,38.20
2022-10-26T08:49:05.028Z,30.33
2022-10-26T08:51:37.570Z,28.73
2022-10-26T08:54:14.359Z,31.73
2022-10-26T08:56:48.575Z,21.08
2022-10-26T08:59:35.855Z,28.80
2022-10-26T09:02:02.997Z,24.60
2022-10-26T09:04:31.826Z,28.88
2022-10-26T09:07:17.494Z,36.42
2022-10-26T09:09:59.549Z,29.90
2022-10-26T09:12:49.284Z,19.88
2022-10-26T09:15:31.827Z,21.60
2022-10-26T09:18:20.944Z,24.98
2022-10-26T09:21:09.188Z,24.52
2022-10-26T09:23:54.510Z,38.95
2022-10-26T09:26:49.620Z,23.38
2022-10-26T09:29:16.570Z,23.27
2022-10-26T09:31:47.663Z,34.97
2022-10-26T09:34:31.460Z,29.95
2022-10-26T09:36:58.554Z,38.58
2022-10-26T09:39:42.491Z,21.80
2022-10-26T09:42:16.567Z,27.75
2022-10-26T09:44:59.082Z,25.35
2022-10-26T09:47:37.378Z,28.25
2022-10-26T09:50:31.075Z,21.40
2022-10-26T09:52:58.100Z,22.55
2022-10-26T09:55:25.044Z,17.65
2022-10-26T09:57:57.775Z,22.80
2022-10-26T10:00:28.960Z,20.90
2022-10-26T10:02:58.349Z,15.13
2022-10-26T10:05:49.923Z,12.23
2022-10-26T10:08:19.810Z,13.30
2022-10-26T10:11:07.429Z,18.60
2022-10-26T10:13:37.354Z,10.68
2022-10-26T10:16:19.352Z,13.93
2022-10-26T10:19:00.444Z,15.70
2022-10-26T10:21:44.928Z,32.53
2022-10-26T10:24:25.961Z,16.83
2022-10-26T10:27:02.418Z,22.00
2022-10-26T10:29:35.097Z,15.25
2022-10-26T10:32:03.797Z,25.25
2022-10-26T10:34:32.795Z,32.35
2022-10-26T10:37:01.468Z,19.83
2022-10-26T10:39:40.444Z,22.67
2022-10-26T10:42:23.973Z,15.13
2022-10-26T10:44:54.135Z,24.30
2022-10-26T10:47:31.073Z,23.92
2022-10-26T10:50:12.726Z,23.33
2022-10-26T10:52:39.974Z,21.08
2022-10-26T10:55:22.629Z,25.65
2022-10-26T10:58:04.093Z,23.95
2022-10-26T11:00:34.501Z,16.95
2022-10-26T11:03:14.232Z,8.68
2022-10-26T11:06:06.223Z,15.82
2022-10-26T11:08:47.246Z,4.22
2022-10-26T11:11:41.746Z,4.15
2022-10-26T11:14:14.445Z,2.33
2022-10-26T11:16:47.605Z,0.98
2022-10-26T11:19:24.438Z,3.65
2022-10-26T11:21:55.577Z,1.85
2022-10-26T11:24:31.631Z,2.03
2022-10-26T11:27:22.711Z,1.80
2022-10-26T11:30:19.982Z,1.42
2022-10-26T11:35:43.226Z,0.40
2022-10-26T11:38:45.289Z,1.42
2022-10-26T11:41:33.599Z,0.65
2022-10-26T11:44:16.054Z,1.05
2022-10-26T11:47:04.089Z,0.20
2022-10-26T11:49:46.614Z,0.77
2022-10-26T11:52:32.588Z,0.85
2022-10-26T11:55:04.915Z,0.63
2022-10-26T11:57:37.392Z,1.10
2022-10-26T12:00:15.903Z,0.50
2022-10-26T12:02:46.451Z,0.17
2022-10-26T12:05:16.468Z,1.58
2022-10-26T12:07:54.456Z,0.73
2022-10-26T12:10:38.411Z,3.03
2022-10-26T12:13:24.857Z,3.60
2022-10-26T12:16:15.094Z,3.38
2022-10-26T12:18:56.610Z,4.53
2022-10-26T12:21:32.029Z,6.95
2022-10-26T12:23:59.998Z,3.22
2022-10-26T12:26:26.892Z,6.63
2022-10-26T12:29:03.061Z,3.53
2022-10-26T12:34:00.878Z,4.35
2022-10-26T12:36:49.682Z,5.55
2022-10-26T12:39:37.934Z,4.22
2022-10-26T12:42:04.903Z,4.75
2022-10-26T12:44:42.692Z,7.35
2022-10-26T12:47:11.256Z,2.25
2022-10-26T12:50:00.086Z,3.28
2022-10-26T12:52:35.416Z,2.78
2022-10-26T12:55:10.644Z,2.47
2022-10-26T12:58:00.323Z,2.33
2022-10-26T13:00:28.268Z,7.35
2022-10-26T13:03:23.861Z,7.10
2022-10-26T13:06:19.628Z,4.57
2022-10-26T13:08:50.055Z,5.47
2022-10-26T13:11:25.258Z,2.30
2022-10-26T13:14:02.620Z,6.07
2022-10-26T13:16:30.179Z,8.35
2022-10-26T13:18:58.108Z,4.63
2022-10-26T13:21:26.493Z,4.95
2022-10-26T13:24:01.831Z,7.95
2022-10-26T13:26:31.351Z,6.10
2022-10-26T13:29:03.417Z,8.23
2022-10-26T13:31:33.028Z,6.03
2022-10-26T13:36:47.537Z,4.72
2022-10-26T13:39:20.470Z,6.72
2022-10-26T13:41:51.253Z,11.75
2022-10-26T13:44:53.334Z,18.10
2022-10-26T13:47:46.960Z,14.15
2022-10-26T13:50:19.667Z,11.73
2022-10-26T13:52:51.548Z,8.55
2022-10-26T13:55:29.953Z,16.08
2022-10-26T13:58:02.763Z,22.42
2022-10-26T14:00:29.792Z,10.55
2022-10-26T14:02:56.779Z,10.32
2022-10-26T14:05:24.099Z,17.70
2022-10-26T14:07:57.624Z,12.43
2022-10-26T14:10:38.242Z,10.55
2022-10-26T14:13:12.923Z,12.05
2022-10-26T14:15:44.712Z,7.68
2022-10-26T14:18:31.626Z,9.35
2022-10-26T14:21:07.802Z,9.35
2022-10-26T14:26:04.861Z,10.63
2022-10-26T14:28:38.962Z,11.35
2022-10-26T14:31:16.595Z,12.00
2022-10-26T14:33:46.569Z,10.32
2022-10-26T14:36:15.180Z,14.15
2022-10-26T14:38:47.802Z,12.48
2022-10-26T14:41:17.865Z,8.02
2022-10-26T14:43:45.440Z,15.48
2022-10-26T14:46:17.489Z,10.05
2022-10-26T14:48:58.974Z,7.68
2022-10-26T14:51:28.180Z,8.35
2022-10-26T14:54:01.259Z,9.90
2022-10-26T14:56:37.425Z,6.03
2022-10-26T14:59:13.333Z,8.50
2022-10-26T15:02:15.426Z,13.52
2022-10-26T15:05:04.677Z,10.27
2022-10-26T15:07:41.044Z,20.83
2022-10-26T15:10:37.032Z,8.05
2022-10-26T15:13:09.975Z,12.50
2022-10-26T15:15:39.689Z,17.67
2022-10-26T15:18:24.827Z,10.52
2022-10-26T15:20:53.418Z,9.63
2022-10-26T15:23:22.827Z,14.38
2022-10-26T15:25:56.161Z,9.25
2022-10-26T15:28:33.134Z,9.63
2022-10-26T15:31:12.187Z,10.15
2022-10-26T15:33:44.465Z,10.65
2022-10-26T15:36:13.808Z,8.32
2022-10-26T15:38:41.198Z,8.68
2022-10-26T15:41:33.610Z,8.68
2022-10-26T15:44:05.959Z,7.75
2022-10-26T15:46:35.745Z,17.67
2022-10-26T15:49:05.893Z,6.28
2022-10-26T15:51:32.932Z,9.25
2022-10-26T15:54:04.830Z,14.63
2022-10-26T15:56:32.446Z,9.48
2022-10-26T15:58:59.536Z,10.93
2022-10-26T16:01:29.148Z,8.70
2022-10-26T16:03:56.549Z,12.32
2022-10-26T16:06:27.526Z,4.82
2022-10-26T16:08:58.302Z,7.53
2022-10-26T16:11:25.893Z,10.75
2022-10-26T16:13:53.801Z,10.98
2022-10-26T16:16:22.447Z,14.68
2022-10-26T16:19:06.145Z,8.90
2022-10-26T16:21:42.036Z,6.57
2022-10-26T16:24:10.377Z,11.35
2022-10-26T16:26:37.422Z,11.00
2022-10-26T16:29:04.432Z,12.63
2022-10-26T16:31:32.119Z,18.17
2022-10-26T16:34:01.791Z,8.50
2022-10-26T16:36:34.134Z,7.28
2022-10-26T16:41:29.513Z,9.18
2022-10-26T16:43:56.716Z,13.05
2022-10-26T16:46:24.206Z,9.57
2022-10-26T16:48:51.900Z,9.55
2022-10-26T16:51:27.731Z,4.38
2022-10-26T16:53:56.625Z,6.10
2022-10-26T16:56:26.685Z,5.88
2022-10-26T16:58:54.393Z,5.97
2022-10-26T17:01:21.894Z,5.75
2022-10-26T17:03:50.922Z,5.38
2022-10-26T17:06:19.200Z,5.57
2022-10-26T17:08:47.032Z,5.72
2022-10-26T17:11:17.778Z,5.03
2022-10-26T17:13:45.697Z,7.32
2022-10-26T17:16:16.071Z,5.88
2022-10-26T17:18:44.211Z,4.82
2022-10-26T17:21:12.843Z,10.60
2022-10-26T17:23:40.274Z,6.75
2022-10-26T17:26:10.137Z,11.68
2022-10-26T17:28:37.746Z,8.40
2022-10-26T17:31:10.750Z,5.07
2022-10-26T17:33:39.421Z,5.18
2022-10-26T17:36:08.097Z,5.20
2022-10-26T17:38:40.561Z,10.77
2022-10-26T17:41:13.356Z,7.03
2022-10-26T17:43:41.685Z,9.20
2022-10-26T17:46:12.592Z,13.10
2022-10-26T17:48:39.814Z,9.07
2022-10-26T17:51:10.235Z,10.68
2022-10-26T17:53:37.097Z,8.65
2022-10-26T17:56:21.929Z,5.18
2022-10-26T17:58:56.728Z,2.75
2022-10-26T18:01:24.125Z,6.90
2022-10-26T18:03:51.244Z,7.90
2022-10-26T18:06:18.837Z,13.23
2022-10-26T18:08:46.055Z,9.65
2022-10-26T18:11:22.549Z,12.52
2022-10-26T18:13:54.023Z,19.05
2022-10-26T18:16:22.589Z,12.98
2022-10-26T18:18:55.109Z,11.00
2022-10-26T18:21:21.959Z,9.85
2022-10-26T18:23:48.863Z,12.18
2022-10-26T18:26:21.301Z,12.25
2022-10-26T18:28:48.224Z,5.25
2022-10-26T18:31:17.876Z,4.53
2022-10-26T18:33:45.198Z,6.53
2022-10-26T18:36:17.525Z,8.27
2022-10-26T18:38:46.923Z,9.35
2022-10-26T18:41:15.976Z,10.73
2022-10-26T18:43:45.014Z,8.23
2022-10-26T18:46:22.987Z,7.30
2022-10-26T18:48:53.877Z,9.70
2022-10-26T18:51:25.356Z,7.43
2022-10-26T18:53:52.653Z,5.18
2022-10-26T18:56:21.320Z,7.18
2022-10-26T18:58:51.669Z,6.57
2022-10-26T19:01:27.240Z,4.03
2022-10-26T19:04:02.784Z,6.32
2022-10-26T19:06:35.135Z,2.70
2022-10-26T19:09:02.438Z,5.68
2022-10-26T19:11:31.124Z,1.83
2022-10-26T19:14:00.600Z,8.05
2022-10-26T19:16:47.268Z,6.53
2022-10-26T19:19:16.301Z,6.28
2022-10-26T19:21:44.171Z,4.07
2022-10-26T19:24:22.574Z,14.48
2022-10-26T19:26:51.186Z,11.95
2022-10-26T19:29:19.767Z,8.80
2022-10-26T19:31:48.155Z,8.65
2022-10-26T19:34:16.014Z,10.77
2022-10-26T19:36:45.183Z,6.78
2022-10-26T19:39:16.892Z,6.43
2022-10-26T19:41:44.898Z,7.00
2022-10-26T19:44:12.394Z,5.25
2022-10-26T19:46:39.748Z,9.43
2022-10-26T19:49:07.434Z,5.57
2022-10-26T19:51:34.419Z,11.80
2022-10-26T19:54:06.082Z,11.13
2022-10-26T19:56:34.755Z,5.18
2022-10-26T19:59:01.869Z,5.80
2022-10-26T20:01:29.003Z,7.18
2022-10-26T20:03:57.431Z,11.85
2022-10-26T20:06:24.716Z,17.77
2022-10-26T20:08:51.688Z,13.98
2022-10-26T20:11:19.455Z,6.35
2022-10-26T20:13:50.248Z,15.15
2022-10-26T20:16:17.831Z,6.20
2022-10-26T20:18:47.813Z,7.32
2022-10-26T20:21:29.757Z,8.10
2022-10-26T20:24:00.050Z,6.38
2022-10-26T20:26:28.608Z,9.90
2022-10-26T20:28:55.984Z,11.75
2022-10-26T20:31:22.877Z,13.38
2022-10-26T20:33:51.782Z,11.40
2022-10-26T20:36:18.807Z,15.38
2022-10-26T20:38:46.009Z,12.45
2022-10-26T20:41:13.463Z,11.40
2022-10-26T20:43:41.155Z,8.65
2022-10-26T20:46:28.059Z,13.20
2022-10-26T20:48:55.421Z,6.88
2022-10-26T20:51:35.550Z,9.15
2022-10-26T20:54:15.621Z,6.78
2022-10-26T20:56:42.695Z,4.90
2022-10-26T20:59:24.966Z,5.47
2022-10-26T21:01:52.043Z,4.00
2022-10-26T21:04:21.448Z,11.20
2022-10-26T21:06:48.339Z,5.55
2022-10-26T21:09:15.679Z,16.63
2022-10-26T21:11:42.952Z,11.10
2022-10-26T21:14:09.807Z,6.80
2022-10-26T21:16:36.680Z,6.30
2022-10-26T21:19:05.143Z,6.85
2022-10-26T21:21:32.048Z,5.47
2022-10-26T21:23:58.887Z,4.57
2022-10-26T21:26:26.747Z,3.70
2022-10-26T21:28:55.170Z,2.75
2022-10-26T21:31:22.090Z,5.95
2022-10-26T21:33:49.187Z,8.35
2022-10-26T21:36:17.255Z,6.35
2022-10-26T21:38:45.709Z,11.05
2022-10-26T21:41:13.898Z,9.98
2022-10-26T21:43:43.333Z,7.45
2022-10-26T21:46:11.172Z,13.05
2022-10-26T21:48:40.993Z,5.90
2022-10-26T21:51:28.455Z,7.03
2022-10-26T21:53:55.401Z,7.63
2022-10-26T21:56:22.508Z,10.05
2022-10-26T21:58:49.560Z,3.92
2022-10-26T22:01:18.939Z,7.63
2022-10-26T22:03:46.844Z,5.63
2022-10-26T22:06:16.614Z,5.53
2022-10-26T22:08:44.054Z,2.50
2022-10-26T22:11:17.001Z,5.40
2022-10-26T22:13:45.474Z,2.35
2022-10-26T22:16:17.431Z,3.55
2022-10-26T22:18:45.911Z,3.22
2022-10-26T22:21:15.716Z,6.07
2022-10-26T22:23:43.517Z,8.13
2022-10-26T22:26:12.943Z,3.50
2022-10-26T22:28:42.935Z,2.55
2022-10-26T22:31:13.171Z,9.85
2022-10-26T22:33:40.795Z,3.53
2022-10-26T22:36:12.866Z,4.57
2022-10-26T22:38:40.009Z,6.30
2022-10-26T22:41:07.308Z,5.00
2022-10-26T22:43:34.264Z,7.65
2022-10-26T22:46:08.196Z,2.85
2022-10-26T22:48:35.729Z,4.97
2022-10-26T22:51:18.742Z,4.72
2022-10-26T22:53:46.490Z,2.15
2022-10-26T22:56:14.777Z,3.30
2022-10-26T22:58:41.773Z,2.03
2022-10-26T23:01:12.652Z,4.03
2022-10-26T23:03:40.057Z,3.45
2022-10-26T23:06:08.716Z,2.05
2022-10-26T23:08:35.620Z,5.63
2022-10-26T23:11:05.107Z,2.78
2022-10-26T23:13:32.992Z,3.65
2022-10-26T23:16:09.956Z,2.20
2022-10-26T23:18:37.220Z,2.30
2022-10-26T23:21:05.886Z,5.40
2022-10-26T23:23:33.257Z,2.67
2022-10-26T23:26:01.948Z,6.88
2022-10-26T23:28:28.987Z,4.22
2022-10-26T23:30:56.027Z,1.35
2022-10-26T23:33:23.126Z,3.13
2022-10-26T23:35:53.728Z,2.35
2022-10-26T23:38:21.064Z,3.78
2022-10-26T23:40:56.051Z,1.90
2022-10-26T23:43:24.590Z,4.20
2022-10-26T23:45:51.507Z,1.85
2022-10-26T23:48:22.160Z,4.03
2022-10-26T23:50:51.146Z,4.03
2022-10-26T23:53:21.683Z,6.57
2022-10-26T23:55:48.605Z,2.58
2022-10-26T23:58:16.848Z,3.63
